KG-0011 weather

Sretenka Airport
Sretenka, Chuy Region, Kyrgyzstan

Public forecast

Using degrees Celsius for public forecast. Weather courtesy of forecast.io.

METAR (pilot weather report)

Closest report is Manas International Airport, 18.1 nm (33.4 km) ENE. Retrieved 2019/03/22 22:00 UTC (19 minutes ago):

UCFM 222200Z 19003MPS CAVOK 06/02 Q1015 R08/09//95 NOSIG

TAF (pilot weather forecast)

Closest forecast is Manas International Airport, 18.1 nm (33.4 km) ENE. Retrieved 2019/03/22 18:00 UTC (4 hours ago):

TAF UCFM 221640Z 2218/2318 07003G08MPS 3000 BR SCT050CB BKN100 TEMPO 2218/2224 22003G08MPS 1500 BR FU FEW005 TEMPO 2300/2304 1500 BR FU FEW005 FM230400 32003G08MPS 6000 BKN030CB TEMPO 2304/2310 27005G10MPS PROB40 TEMPO 2304/2310 TS